Location Greenlaw, NA, UK

ob NPTOHCUK 281030Z AUTO 13001G04KT CLR CLR 22/16 A3045 RMK SLPNO 

2020.05.28 1030 UTC
Wind from the SE (133 degrees) at 1 MPH (1 KT) gusting to 5 MPH (4 KT)
Visibility    Mile(s)
Weather: CLR
Sky Conditions  clear
Temperature 70.7 F (22 C)
Dew Point 60.1 F (16 C)
Relative Humidity 69%
Pressure   30.451 in. Hg (1031 hPa)
Rain  0.00 in.
Daily Rain  in.

Station Name  New Palace Theatre Organ Heritage Centre
Longitude, Latitude  -2.46, 55.71
Elevation 525
Station URL http://www.nptohc.co.uk/weather
Software Type WeatherDisplay:10.37P